Lake View, Alabama
Current Conditions -  °F | °C
As of 11:53 PM on Saturday 22 Nov 2014 (Local Time) from KEET Reporting Station
Overcast Overcast  
Wind Chill: 58°   Ceiling: 1600
Heat Index: 58°   Visibility: 10mi
Dew Point: 51°   Wind: 7mph
Humidity: 78%   Direction: NA
Pressure: 30.07"   Gusts: NA
Location:  33.3452°N, 87.0035°W
Report Text: KEET 230553Z AUTO VRB06KT 10SM OVC016 14/11 A3007 RMK AO2 SLP177 60000 T01440106 10172 20144 402060056 56024
Loading
Personal Weather Stations






























Interactive Weather Map New forecast layout! Learn more

10-Day Weather Forecast

Advertisements
Track Severe Weather on mobile